sensor_id;sensor_type;location;lat;lon;timestamp;temperature;humidity
31455;DHT22;18084;53.028;8.834;2022-11-20T00:00:52;0.60;99.90
31455;DHT22;18084;53.028;8.834;2022-11-20T00:03:18;0.50;99.90
31455;DHT22;18084;53.028;8.834;2022-11-20T00:05:44;0.50;99.90
31455;DHT22;18084;53.028;8.834;2022-11-20T00:08:10;0.60;99.90
31455;DHT22;18084;53.028;8.834;2022-11-20T00:10:39;0.50;99.90
31455;DHT22;18084;53.028;8.834;2022-11-20T00:13:06;0.50;99.90
31455;DHT22;18084;53.028;8.834;2022-11-20T00:15:32;0.50;99.90
31455;DHT22;18084;53.028;8.834;2022-11-20T00:17:58;0.50;99.90
31455;DHT22;18084;53.028;8.834;2022-11-20T00:20:23;0.50;99.90
31455;DHT22;18084;53.028;8.834;2022-11-20T00:22:50;0.50;99.90
31455;DHT22;18084;53.028;8.834;2022-11-20T00:25:16;0.50;99.90
31455;DHT22;18084;53.028;8.834;2022-11-20T00:27:41;0.50;99.90
31455;DHT22;18084;53.028;8.834;2022-11-20T00:30:07;0.60;99.90
31455;DHT22;18084;53.028;8.834;2022-11-20T00:32:33;0.60;99.90
31455;DHT22;18084;53.028;8.834;2022-11-20T00:34:58;0.60;99.90
31455;DHT22;18084;53.028;8.834;2022-11-20T00:37:24;0.60;99.90
31455;DHT22;18084;53.028;8.834;2022-11-20T00:39:49;0.60;99.90
31455;DHT22;18084;53.028;8.834;2022-11-20T00:42:15;0.60;99.90
31455;DHT22;18084;53.028;8.834;2022-11-20T00:44:40;0.60;99.90
31455;DHT22;18084;53.028;8.834;2022-11-20T00:47:06;0.60;99.90
31455;DHT22;18084;53.028;8.834;2022-11-20T00:49:31;0.60;99.90
31455;DHT22;18084;53.028;8.834;2022-11-20T00:51:57;0.60;99.90
31455;DHT22;18084;53.028;8.834;2022-11-20T00:54:22;0.70;99.90
31455;DHT22;18084;53.028;8.834;2022-11-20T00:56:48;0.70;99.90
31455;DHT22;18084;53.028;8.834;2022-11-20T00:59:14;0.70;99.90
31455;DHT22;18084;53.028;8.834;2022-11-20T01:01:39;0.70;99.90
31455;DHT22;18084;53.028;8.834;2022-11-20T01:04:05;0.70;99.90
31455;DHT22;18084;53.028;8.834;2022-11-20T01:06:36;0.70;99.90
31455;DHT22;18084;53.028;8.834;2022-11-20T01:09:04;0.70;99.90
31455;DHT22;18084;53.028;8.834;2022-11-20T01:11:33;0.80;99.90
31455;DHT22;18084;53.028;8.834;2022-11-20T01:13:59;0.80;99.90
31455;DHT22;18084;53.028;8.834;2022-11-20T01:16:28;0.70;99.90
31455;DHT22;18084;53.028;8.834;2022-11-20T01:18:57;0.70;99.90
31455;DHT22;18084;53.028;8.834;2022-11-20T01:21:28;0.70;99.90
31455;DHT22;18084;53.028;8.834;2022-11-20T01:23:55;0.70;99.90
31455;DHT22;18084;53.028;8.834;2022-11-20T01:26:23;0.70;99.90
31455;DHT22;18084;53.028;8.834;2022-11-20T01:28:49;0.70;99.90
31455;DHT22;18084;53.028;8.834;2022-11-20T01:31:18;0.70;99.90
31455;DHT22;18084;53.028;8.834;2022-11-20T01:33:45;0.70;99.90
31455;DHT22;18084;53.028;8.834;2022-11-20T01:36:12;0.80;99.90
31455;DHT22;18084;53.028;8.834;2022-11-20T01:38:38;0.80;99.90
31455;DHT22;18084;53.028;8.834;2022-11-20T01:41:05;0.80;99.90
31455;DHT22;18084;53.028;8.834;2022-11-20T01:43:31;0.70;99.90
31455;DHT22;18084;53.028;8.834;2022-11-20T01:46:23;1.10;99.90
31455;DHT22;18084;53.028;8.834;2022-11-20T01:51:43;0.70;99.90
31455;DHT22;18084;53.028;8.834;2022-11-20T01:54:29;0.60;99.90
31455;DHT22;18084;53.028;8.834;2022-11-20T01:56:57;0.70;99.90
31455;DHT22;18084;53.028;8.834;2022-11-20T01:59:25;0.70;99.90
31455;DHT22;18084;53.028;8.834;2022-11-20T02:01:52;0.70;99.90
31455;DHT22;18084;53.028;8.834;2022-11-20T02:04:18;0.70;99.90
31455;DHT22;18084;53.028;8.834;2022-11-20T02:06:47;0.70;99.90
31455;DHT22;18084;53.028;8.834;2022-11-20T02:09:14;0.70;99.90
31455;DHT22;18084;53.028;8.834;2022-11-20T02:11:40;0.70;99.90
31455;DHT22;18084;53.028;8.834;2022-11-20T02:14:06;0.80;99.90
31455;DHT22;18084;53.028;8.834;2022-11-20T02:16:35;0.80;99.90
31455;DHT22;18084;53.028;8.834;2022-11-20T02:19:04;0.80;99.90
31455;DHT22;18084;53.028;8.834;2022-11-20T02:21:41;0.80;99.90
31455;DHT22;18084;53.028;8.834;2022-11-20T02:24:12;0.80;99.90
31455;DHT22;18084;53.028;8.834;2022-11-20T02:27:01;0.80;99.90
31455;DHT22;18084;53.028;8.834;2022-11-20T02:29:50;0.80;99.90
31455;DHT22;18084;53.028;8.834;2022-11-20T02:32:24;0.80;99.90
31455;DHT22;18084;53.028;8.834;2022-11-20T02:34:50;0.80;99.90
31455;DHT22;18084;53.028;8.834;2022-11-20T02:37:16;0.80;99.90
31455;DHT22;18084;53.028;8.834;2022-11-20T02:39:44;0.80;99.90
31455;DHT22;18084;53.028;8.834;2022-11-20T02:42:11;0.90;99.90
31455;DHT22;18084;53.028;8.834;2022-11-20T02:44:36;0.80;99.90
31455;DHT22;18084;53.028;8.834;2022-11-20T02:47:02;0.80;99.90
31455;DHT22;18084;53.028;8.834;2022-11-20T02:49:28;0.80;99.90
31455;DHT22;18084;53.028;8.834;2022-11-20T02:51:53;0.80;99.90
31455;DHT22;18084;53.028;8.834;2022-11-20T02:54:19;0.80;99.90
31455;DHT22;18084;53.028;8.834;2022-11-20T02:56:44;0.80;99.90
31455;DHT22;18084;53.028;8.834;2022-11-20T02:59:10;0.90;99.90
31455;DHT22;18084;53.028;8.834;2022-11-20T03:01:35;0.80;99.90
31455;DHT22;18084;53.028;8.834;2022-11-20T03:04:01;0.90;99.90
31455;DHT22;18084;53.028;8.834;2022-11-20T03:06:27;0.90;99.90
31455;DHT22;18084;53.028;8.834;2022-11-20T03:08:52;0.90;99.90
31455;DHT22;18084;53.028;8.834;2022-11-20T03:11:18;0.90;99.90
31455;DHT22;18084;53.028;8.834;2022-11-20T03:13:43;0.90;99.90
31455;DHT22;18084;53.028;8.834;2022-11-20T03:16:15;0.90;99.90
31455;DHT22;18084;53.028;8.834;2022-11-20T03:18:41;0.90;99.90
31455;DHT22;18084;53.028;8.834;2022-11-20T03:21:08;0.90;99.90
31455;DHT22;18084;53.028;8.834;2022-11-20T03:23:34;0.90;99.90
31455;DHT22;18084;53.028;8.834;2022-11-20T03:28:33;1.00;99.90
31455;DHT22;18084;53.028;8.834;2022-11-20T03:31:08;1.00;99.90
31455;DHT22;18084;53.028;8.834;2022-11-20T03:33:34;1.00;99.90
31455;DHT22;18084;53.028;8.834;2022-11-20T03:36:05;0.90;99.90
31455;DHT22;18084;53.028;8.834;2022-11-20T03:38:32;1.00;99.90
31455;DHT22;18084;53.028;8.834;2022-11-20T03:41:03;0.90;99.90
31455;DHT22;18084;53.028;8.834;2022-11-20T03:43:29;0.90;99.90
31455;DHT22;18084;53.028;8.834;2022-11-20T03:45:55;1.00;99.90
31455;DHT22;18084;53.028;8.834;2022-11-20T03:48:20;1.00;99.90
31455;DHT22;18084;53.028;8.834;2022-11-20T03:50:46;1.00;99.90
31455;DHT22;18084;53.028;8.834;2022-11-20T03:53:13;1.00;99.90
31455;DHT22;18084;53.028;8.834;2022-11-20T03:55:39;1.00;99.90
31455;DHT22;18084;53.028;8.834;2022-11-20T03:58:04;1.00;99.90
31455;DHT22;18084;53.028;8.834;2022-11-20T04:00:30;1.00;99.90
31455;DHT22;18084;53.028;8.834;2022-11-20T04:02:59;0.90;99.90
31455;DHT22;18084;53.028;8.834;2022-11-20T04:05:25;0.90;99.90
31455;DHT22;18084;53.028;8.834;2022-11-20T04:07:51;0.90;99.90
31455;DHT22;18084;53.028;8.834;2022-11-20T04:10:16;1.00;99.90
31455;DHT22;18084;53.028;8.834;2022-11-20T04:12:42;1.00;99.90
31455;DHT22;18084;53.028;8.834;2022-11-20T04:15:08;1.00;99.90
31455;DHT22;18084;53.028;8.834;2022-11-20T04:17:34;1.00;99.90
31455;DHT22;18084;53.028;8.834;2022-11-20T04:19:59;0.90;99.90
31455;DHT22;18084;53.028;8.834;2022-11-20T04:22:25;1.00;99.90
31455;DHT22;18084;53.028;8.834;2022-11-20T04:24:50;0.90;99.90
31455;DHT22;18084;53.028;8.834;2022-11-20T04:27:16;1.00;99.90
31455;DHT22;18084;53.028;8.834;2022-11-20T04:29:42;1.00;99.90
31455;DHT22;18084;53.028;8.834;2022-11-20T04:32:07;1.00;99.90
31455;DHT22;18084;53.028;8.834;2022-11-20T04:34:33;1.00;99.90
31455;DHT22;18084;53.028;8.834;2022-11-20T04:36:58;1.00;99.90
31455;DHT22;18084;53.028;8.834;2022-11-20T04:39:24;1.00;99.90
31455;DHT22;18084;53.028;8.834;2022-11-20T04:41:49;1.00;99.90
31455;DHT22;18084;53.028;8.834;2022-11-20T04:44:35;1.00;99.90
31455;DHT22;18084;53.028;8.834;2022-11-20T04:47:00;1.00;99.90
31455;DHT22;18084;53.028;8.834;2022-11-20T04:49:26;1.00;99.90
31455;DHT22;18084;53.028;8.834;2022-11-20T04:51:55;1.00;99.90
31455;DHT22;18084;53.028;8.834;2022-11-20T04:54:20;1.00;99.90
31455;DHT22;18084;53.028;8.834;2022-11-20T04:56:49;1.00;99.90
31455;DHT22;18084;53.028;8.834;2022-11-20T04:59:15;1.00;99.90
31455;DHT22;18084;53.028;8.834;2022-11-20T05:01:41;1.00;99.90
31455;DHT22;18084;53.028;8.834;2022-11-20T05:04:07;1.00;99.90
31455;DHT22;18084;53.028;8.834;2022-11-20T05:06:33;1.00;99.90
31455;DHT22;18084;53.028;8.834;2022-11-20T05:08:59;1.00;99.90
31455;DHT22;18084;53.028;8.834;2022-11-20T05:11:25;1.00;99.90
31455;DHT22;18084;53.028;8.834;2022-11-20T05:13:50;1.00;99.90
31455;DHT22;18084;53.028;8.834;2022-11-20T05:16:21;1.00;99.90
31455;DHT22;18084;53.028;8.834;2022-11-20T05:18:49;1.00;99.90
31455;DHT22;18084;53.028;8.834;2022-11-20T05:21:15;1.00;99.90
31455;DHT22;18084;53.028;8.834;2022-11-20T05:23:42;1.00;99.90
31455;DHT22;18084;53.028;8.834;2022-11-20T05:26:12;1.00;99.90
31455;DHT22;18084;53.028;8.834;2022-11-20T05:28:38;1.00;99.90
31455;DHT22;18084;53.028;8.834;2022-11-20T05:31:15;1.10;99.90
31455;DHT22;18084;53.028;8.834;2022-11-20T05:33:42;1.10;99.90
31455;DHT22;18084;53.028;8.834;2022-11-20T05:36:09;1.10;99.90
31455;DHT22;18084;53.028;8.834;2022-11-20T05:38:35;1.00;99.90
31455;DHT22;18084;53.028;8.834;2022-11-20T05:43:38;1.10;99.90
31455;DHT22;18084;53.028;8.834;2022-11-20T05:46:05;1.00;99.90
31455;DHT22;18084;53.028;8.834;2022-11-20T05:48:31;1.00;99.90
31455;DHT22;18084;53.028;8.834;2022-11-20T05:50:59;1.00;99.90
31455;DHT22;18084;53.028;8.834;2022-11-20T05:53:25;1.00;99.90
31455;DHT22;18084;53.028;8.834;2022-11-20T05:55:58;1.10;99.90
31455;DHT22;18084;53.028;8.834;2022-11-20T05:58:24;1.10;99.90
31455;DHT22;18084;53.028;8.834;2022-11-20T06:00:50;1.00;99.90
31455;DHT22;18084;53.028;8.834;2022-11-20T06:03:15;1.10;99.90
31455;DHT22;18084;53.028;8.834;2022-11-20T06:05:41;1.10;99.90
31455;DHT22;18084;53.028;8.834;2022-11-20T06:08:06;1.10;99.90
31455;DHT22;18084;53.028;8.834;2022-11-20T06:10:32;1.10;99.90
31455;DHT22;18084;53.028;8.834;2022-11-20T06:12:58;1.10;99.90
31455;DHT22;18084;53.028;8.834;2022-11-20T06:15:24;1.10;99.90
31455;DHT22;18084;53.028;8.834;2022-11-20T06:17:53;1.10;99.90
31455;DHT22;18084;53.028;8.834;2022-11-20T06:20:23;1.10;99.90
31455;DHT22;18084;53.028;8.834;2022-11-20T06:22:48;1.10;99.90
31455;DHT22;18084;53.028;8.834;2022-11-20T06:25:14;1.10;99.90
31455;DHT22;18084;53.028;8.834;2022-11-20T06:27:39;1.00;99.90
31455;DHT22;18084;53.028;8.834;2022-11-20T06:30:05;1.10;99.90
31455;DHT22;18084;53.028;8.834;2022-11-20T06:32:31;1.00;99.90
31455;DHT22;18084;53.028;8.834;2022-11-20T06:34:57;1.00;99.90
31455;DHT22;18084;53.028;8.834;2022-11-20T06:37:23;1.00;99.90
31455;DHT22;18084;53.028;8.834;2022-11-20T06:39:48;1.00;99.90
31455;DHT22;18084;53.028;8.834;2022-11-20T06:42:14;1.00;99.90
31455;DHT22;18084;53.028;8.834;2022-11-20T06:44:39;1.00;99.90
31455;DHT22;18084;53.028;8.834;2022-11-20T06:47:05;0.90;99.90
31455;DHT22;18084;53.028;8.834;2022-11-20T06:49:31;1.00;99.90
31455;DHT22;18084;53.028;8.834;2022-11-20T06:51:57;0.90;99.90
31455;DHT22;18084;53.028;8.834;2022-11-20T06:54:22;0.90;99.90
31455;DHT22;18084;53.028;8.834;2022-11-20T06:56:48;0.90;99.90
31455;DHT22;18084;53.028;8.834;2022-11-20T06:59:14;0.90;99.90
31455;DHT22;18084;53.028;8.834;2022-11-20T07:01:39;0.90;99.90
31455;DHT22;18084;53.028;8.834;2022-11-20T07:04:05;0.90;99.90
31455;DHT22;18084;53.028;8.834;2022-11-20T07:06:31;0.90;99.90
31455;DHT22;18084;53.028;8.834;2022-11-20T07:08:56;0.90;99.90
31455;DHT22;18084;53.028;8.834;2022-11-20T07:11:23;0.90;99.90
31455;DHT22;18084;53.028;8.834;2022-11-20T07:13:49;0.80;99.90
31455;DHT22;18084;53.028;8.834;2022-11-20T07:16:15;0.80;99.90
31455;DHT22;18084;53.028;8.834;2022-11-20T07:18:40;0.80;99.90
31455;DHT22;18084;53.028;8.834;2022-11-20T07:21:07;0.80;99.90
31455;DHT22;18084;53.028;8.834;2022-11-20T07:23:33;0.80;99.90
31455;DHT22;18084;53.028;8.834;2022-11-20T07:26:05;0.80;99.90
31455;DHT22;18084;53.028;8.834;2022-11-20T07:28:31;0.70;99.90
31455;DHT22;18084;53.028;8.834;2022-11-20T07:30:57;0.70;99.90
31455;DHT22;18084;53.028;8.834;2022-11-20T07:33:22;0.70;99.90
31455;DHT22;18084;53.028;8.834;2022-11-20T07:35:48;0.70;99.90
31455;DHT22;18084;53.028;8.834;2022-11-20T07:38:14;0.70;99.90
31455;DHT22;18084;53.028;8.834;2022-11-20T07:40:39;0.70;99.90
31455;DHT22;18084;53.028;8.834;2022-11-20T07:43:05;0.70;99.90
31455;DHT22;18084;53.028;8.834;2022-11-20T07:45:30;0.70;99.90
31455;DHT22;18084;53.028;8.834;2022-11-20T07:47:56;0.70;99.90
31455;DHT22;18084;53.028;8.834;2022-11-20T07:50:22;0.70;99.90
31455;DHT22;18084;53.028;8.834;2022-11-20T07:52:48;0.70;99.90
31455;DHT22;18084;53.028;8.834;2022-11-20T07:55:14;0.80;99.90
31455;DHT22;18084;53.028;8.834;2022-11-20T07:57:40;0.80;99.90
31455;DHT22;18084;53.028;8.834;2022-11-20T08:00:06;0.80;99.90
31455;DHT22;18084;53.028;8.834;2022-11-20T08:02:36;0.80;99.90
31455;DHT22;18084;53.028;8.834;2022-11-20T08:05:02;0.90;99.90
31455;DHT22;18084;53.028;8.834;2022-11-20T08:07:27;0.90;99.90
31455;DHT22;18084;53.028;8.834;2022-11-20T08:09:53;0.90;99.90
31455;DHT22;18084;53.028;8.834;2022-11-20T08:12:20;1.00;99.90
31455;DHT22;18084;53.028;8.834;2022-11-20T08:15:05;1.00;99.90
31455;DHT22;18084;53.028;8.834;2022-11-20T08:17:31;1.00;99.90
31455;DHT22;18084;53.028;8.834;2022-11-20T08:19:57;1.00;99.90
31455;DHT22;18084;53.028;8.834;2022-11-20T08:22:23;1.00;99.90
31455;DHT22;18084;53.028;8.834;2022-11-20T08:24:48;1.00;99.90
31455;DHT22;18084;53.028;8.834;2022-11-20T08:27:14;1.10;99.90
31455;DHT22;18084;53.028;8.834;2022-11-20T08:29:39;1.10;99.90
31455;DHT22;18084;53.028;8.834;2022-11-20T08:32:05;1.20;99.90
31455;DHT22;18084;53.028;8.834;2022-11-20T08:34:30;1.20;99.90
31455;DHT22;18084;53.028;8.834;2022-11-20T08:36:56;1.20;99.90
31455;DHT22;18084;53.028;8.834;2022-11-20T08:39:22;1.20;99.90
31455;DHT22;18084;53.028;8.834;2022-11-20T08:41:47;1.30;99.90
31455;DHT22;18084;53.028;8.834;2022-11-20T08:44:13;1.40;99.90
31455;DHT22;18084;53.028;8.834;2022-11-20T08:46:40;1.40;99.90
31455;DHT22;18084;53.028;8.834;2022-11-20T08:49:08;1.40;99.90
31455;DHT22;18084;53.028;8.834;2022-11-20T08:51:34;1.40;99.90
31455;DHT22;18084;53.028;8.834;2022-11-20T08:54:00;1.40;99.90
31455;DHT22;18084;53.028;8.834;2022-11-20T08:56:26;1.40;99.90
31455;DHT22;18084;53.028;8.834;2022-11-20T08:58:52;1.40;99.90
31455;DHT22;18084;53.028;8.834;2022-11-20T09:01:18;1.50;99.90
31455;DHT22;18084;53.028;8.834;2022-11-20T09:03:45;1.50;99.90
31455;DHT22;18084;53.028;8.834;2022-11-20T09:06:11;1.50;99.90
31455;DHT22;18084;53.028;8.834;2022-11-20T09:08:36;1.50;99.90
31455;DHT22;18084;53.028;8.834;2022-11-20T09:11:02;1.60;99.90
31455;DHT22;18084;53.028;8.834;2022-11-20T09:13:29;1.60;99.90
31455;DHT22;18084;53.028;8.834;2022-11-20T09:15:56;1.70;99.90
31455;DHT22;18084;53.028;8.834;2022-11-20T09:18:22;1.70;99.90
31455;DHT22;18084;53.028;8.834;2022-11-20T09:20:48;1.80;99.90
31455;DHT22;18084;53.028;8.834;2022-11-20T09:23:14;1.80;99.90
31455;DHT22;18084;53.028;8.834;2022-11-20T09:25:40;1.90;99.90
31455;DHT22;18084;53.028;8.834;2022-11-20T09:28:06;1.90;99.90
31455;DHT22;18084;53.028;8.834;2022-11-20T09:30:31;2.00;99.90
31455;DHT22;18084;53.028;8.834;2022-11-20T09:32:57;2.00;99.90
31455;DHT22;18084;53.028;8.834;2022-11-20T09:35:22;2.00;99.90
31455;DHT22;18084;53.028;8.834;2022-11-20T09:37:48;2.00;99.90
31455;DHT22;18084;53.028;8.834;2022-11-20T09:40:25;1.90;99.90
31455;DHT22;18084;53.028;8.834;2022-11-20T09:42:59;1.90;99.90
31455;DHT22;18084;53.028;8.834;2022-11-20T09:45:47;1.90;99.90
31455;DHT22;18084;53.028;8.834;2022-11-20T09:48:42;1.90;99.90
31455;DHT22;18084;53.028;8.834;2022-11-20T09:54:16;1.90;99.90
31455;DHT22;18084;53.028;8.834;2022-11-20T09:56:52;1.90;99.90
31455;DHT22;18084;53.028;8.834;2022-11-20T09:59:34;1.90;99.90
31455;DHT22;18084;53.028;8.834;2022-11-20T10:02:03;1.90;99.90
31455;DHT22;18084;53.028;8.834;2022-11-20T10:04:33;1.90;99.90
31455;DHT22;18084;53.028;8.834;2022-11-20T10:07:13;1.90;99.90
31455;DHT22;18084;53.028;8.834;2022-11-20T10:09:50;1.90;99.90
31455;DHT22;18084;53.028;8.834;2022-11-20T10:12:26;1.90;99.90
31455;DHT22;18084;53.028;8.834;2022-11-20T10:17:50;1.80;99.90
31455;DHT22;18084;53.028;8.834;2022-11-20T10:20:29;1.70;99.90
31455;DHT22;18084;53.028;8.834;2022-11-20T10:25:43;1.70;99.90
31455;DHT22;18084;53.028;8.834;2022-11-20T10:31:04;1.70;99.90
31455;DHT22;18084;53.028;8.834;2022-11-20T10:33:36;1.80;99.90
31455;DHT22;18084;53.028;8.834;2022-11-20T10:36:22;1.80;99.90
31455;DHT22;18084;53.028;8.834;2022-11-20T10:41:49;1.70;99.90
31455;DHT22;18084;53.028;8.834;2022-11-20T10:44:19;1.80;99.90
31455;DHT22;18084;53.028;8.834;2022-11-20T10:47:05;1.70;99.90
31455;DHT22;18084;53.028;8.834;2022-11-20T10:49:35;1.80;99.90
31455;DHT22;18084;53.028;8.834;2022-11-20T10:55:06;1.80;99.90
31455;DHT22;18084;53.028;8.834;2022-11-20T10:57:46;1.90;99.90
31455;DHT22;18084;53.028;8.834;2022-11-20T11:00:14;1.90;99.90
31455;DHT22;18084;53.028;8.834;2022-11-20T11:02:54;1.80;99.90
31455;DHT22;18084;53.028;8.834;2022-11-20T11:07:56;1.80;99.90
31455;DHT22;18084;53.028;8.834;2022-11-20T11:13:24;1.70;99.90
31455;DHT22;18084;53.028;8.834;2022-11-20T11:15:50;1.70;99.90
31455;DHT22;18084;53.028;8.834;2022-11-20T11:18:30;1.70;99.90
31455;DHT22;18084;53.028;8.834;2022-11-20T11:21:01;1.60;99.90
31455;DHT22;18084;53.028;8.834;2022-11-20T11:23:37;2.00;99.90
31455;DHT22;18084;53.028;8.834;2022-11-20T11:26:06;1.60;99.90
31455;DHT22;18084;53.028;8.834;2022-11-20T11:28:32;1.50;99.90
31455;DHT22;18084;53.028;8.834;2022-11-20T11:30:58;1.40;99.90
31455;DHT22;18084;53.028;8.834;2022-11-20T11:33:28;1.40;99.90
31455;DHT22;18084;53.028;8.834;2022-11-20T11:35:55;1.30;99.90
31455;DHT22;18084;53.028;8.834;2022-11-20T11:38:36;1.40;99.90
31455;DHT22;18084;53.028;8.834;2022-11-20T11:41:05;1.40;99.90
31455;DHT22;18084;53.028;8.834;2022-11-20T11:43:33;1.50;99.90
31455;DHT22;18084;53.028;8.834;2022-11-20T11:54:48;1.70;99.90
31455;DHT22;18084;53.028;8.834;2022-11-20T11:57:26;1.80;99.90
31455;DHT22;18084;53.028;8.834;2022-11-20T12:02:45;2.00;99.90
31455;DHT22;18084;53.028;8.834;2022-11-20T12:06:11;2.00;99.90
31455;DHT22;18084;53.028;8.834;2022-11-20T12:08:36;2.10;99.90
31455;DHT22;18084;53.028;8.834;2022-11-20T12:11:38;2.10;99.90
31455;DHT22;18084;53.028;8.834;2022-11-20T12:14:21;2.00;96.70
31455;DHT22;18084;53.028;8.834;2022-11-20T12:16:52;1.90;97.10
31455;DHT22;18084;53.028;8.834;2022-11-20T12:19:19;1.90;97.40
31455;DHT22;18084;53.028;8.834;2022-11-20T12:21:57;1.90;99.90
31455;DHT22;18084;53.028;8.834;2022-11-20T12:30:09;1.80;99.90
31455;DHT22;18084;53.028;8.834;2022-11-20T12:32:54;1.70;99.90
31455;DHT22;18084;53.028;8.834;2022-11-20T12:41:19;1.50;99.90
31455;DHT22;18084;53.028;8.834;2022-11-20T12:53:16;1.20;99.90
31455;DHT22;18084;53.028;8.834;2022-11-20T13:01:40;1.20;99.90
31455;DHT22;18084;53.028;8.834;2022-11-20T13:04:39;1.20;99.90
31455;DHT22;18084;53.028;8.834;2022-11-20T13:07:10;1.20;99.90
31455;DHT22;18084;53.028;8.834;2022-11-20T13:09:42;1.20;99.90
31455;DHT22;18084;53.028;8.834;2022-11-20T13:15:07;3.30;99.90
31455;DHT22;18084;53.028;8.834;2022-11-20T13:18:02;1.30;99.90
31455;DHT22;18084;53.028;8.834;2022-11-20T13:20:27;1.30;99.90
31455;DHT22;18084;53.028;8.834;2022-11-20T13:22:57;1.30;99.90
31455;DHT22;18084;53.028;8.834;2022-11-20T13:27:49;1.40;99.90
31455;DHT22;18084;53.028;8.834;2022-11-20T13:30:17;1.40;99.90
31455;DHT22;18084;53.028;8.834;2022-11-20T13:32:53;1.40;99.90
31455;DHT22;18084;53.028;8.834;2022-11-20T13:35:33;1.50;99.90
31455;DHT22;18084;53.028;8.834;2022-11-20T13:38:08;1.40;99.90
31455;DHT22;18084;53.028;8.834;2022-11-20T13:40:58;1.40;99.90
31455;DHT22;18084;53.028;8.834;2022-11-20T13:43:36;1.30;99.90
31455;DHT22;18084;53.028;8.834;2022-11-20T13:46:05;1.40;99.90
31455;DHT22;18084;53.028;8.834;2022-11-20T13:48:40;1.30;99.90
31455;DHT22;18084;53.028;8.834;2022-11-20T13:56:43;1.30;99.90
31455;DHT22;18084;53.028;8.834;2022-11-20T14:01:45;1.30;99.90
31455;DHT22;18084;53.028;8.834;2022-11-20T14:04:17;1.20;99.90
31455;DHT22;18084;53.028;8.834;2022-11-20T14:06:45;1.30;99.90
31455;DHT22;18084;53.028;8.834;2022-11-20T14:09:29;1.20;99.90
31455;DHT22;18084;53.028;8.834;2022-11-20T14:11:55;1.20;99.90
31455;DHT22;18084;53.028;8.834;2022-11-20T14:14:24;1.20;99.90
31455;DHT22;18084;53.028;8.834;2022-11-20T14:16:53;1.20;99.90
31455;DHT22;18084;53.028;8.834;2022-11-20T14:19:26;1.00;99.90
31455;DHT22;18084;53.028;8.834;2022-11-20T14:22:07;1.00;99.90
31455;DHT22;18084;53.028;8.834;2022-11-20T14:24:33;0.90;99.90
31455;DHT22;18084;53.028;8.834;2022-11-20T14:27:02;2.80;99.90
31455;DHT22;18084;53.028;8.834;2022-11-20T14:29:38;2.50;99.90
31455;DHT22;18084;53.028;8.834;2022-11-20T14:32:04;0.90;99.90
31455;DHT22;18084;53.028;8.834;2022-11-20T14:34:38;0.90;99.90
31455;DHT22;18084;53.028;8.834;2022-11-20T14:37:09;0.80;99.90
31455;DHT22;18084;53.028;8.834;2022-11-20T14:39:37;0.80;99.90
31455;DHT22;18084;53.028;8.834;2022-11-20T14:42:31;3.00;99.90
31455;DHT22;18084;53.028;8.834;2022-11-20T14:44:59;0.70;99.90
31455;DHT22;18084;53.028;8.834;2022-11-20T14:47:29;0.70;99.90
31455;DHT22;18084;53.028;8.834;2022-11-20T14:49:57;2.10;99.90
31455;DHT22;18084;53.028;8.834;2022-11-20T14:52:27;0.70;99.90
31455;DHT22;18084;53.028;8.834;2022-11-20T14:54:55;0.70;99.90
31455;DHT22;18084;53.028;8.834;2022-11-20T14:57:32;0.60;99.90
31455;DHT22;18084;53.028;8.834;2022-11-20T15:02:44;0.90;99.90
31455;DHT22;18084;53.028;8.834;2022-11-20T15:05:10;0.60;99.90
31455;DHT22;18084;53.028;8.834;2022-11-20T15:07:39;1.80;99.90
31455;DHT22;18084;53.028;8.834;2022-11-20T15:10:22;0.40;99.90
31455;DHT22;18084;53.028;8.834;2022-11-20T15:13:10;0.50;99.90
31455;DHT22;18084;53.028;8.834;2022-11-20T15:18:12;0.60;99.90
31455;DHT22;18084;53.028;8.834;2022-11-20T15:20:38;2.00;99.90
31455;DHT22;18084;53.028;8.834;2022-11-20T15:23:14;0.40;99.90
31455;DHT22;18084;53.028;8.834;2022-11-20T15:25:40;0.50;99.90
31455;DHT22;18084;53.028;8.834;2022-11-20T15:28:23;0.50;99.90
31455;DHT22;18084;53.028;8.834;2022-11-20T15:30:51;0.50;99.90
31455;DHT22;18084;53.028;8.834;2022-11-20T15:33:18;0.50;99.90
31455;DHT22;18084;53.028;8.834;2022-11-20T15:35:44;0.40;99.90
31455;DHT22;18084;53.028;8.834;2022-11-20T15:38:10;0.40;99.90
31455;DHT22;18084;53.028;8.834;2022-11-20T15:40:36;0.30;99.90
31455;DHT22;18084;53.028;8.834;2022-11-20T15:43:01;0.20;99.90
31455;DHT22;18084;53.028;8.834;2022-11-20T15:48:16;0.20;99.90
31455;DHT22;18084;53.028;8.834;2022-11-20T15:50:59;0.20;99.90
31455;DHT22;18084;53.028;8.834;2022-11-20T15:53:26;0.10;99.90
31455;DHT22;18084;53.028;8.834;2022-11-20T15:55:52;0.10;99.90
31455;DHT22;18084;53.028;8.834;2022-11-20T15:58:18;0.00;99.90
31455;DHT22;18084;53.028;8.834;2022-11-20T16:00:44;0.00;99.90
31455;DHT22;18084;53.028;8.834;2022-11-20T16:03:14;0.00;99.90
31455;DHT22;18084;53.028;8.834;2022-11-20T16:05:40;0.00;99.90
31455;DHT22;18084;53.028;8.834;2022-11-20T16:08:05;-0.10;99.90
31455;DHT22;18084;53.028;8.834;2022-11-20T16:10:31;-0.20;99.90
31455;DHT22;18084;53.028;8.834;2022-11-20T16:12:56;-0.30;99.90
31455;DHT22;18084;53.028;8.834;2022-11-20T16:15:40;-0.30;99.90
31455;DHT22;18084;53.028;8.834;2022-11-20T16:18:17;-0.40;99.90
31455;DHT22;18084;53.028;8.834;2022-11-20T16:20:44;-0.40;99.90
31455;DHT22;18084;53.028;8.834;2022-11-20T16:23:10;-0.40;99.90
31455;DHT22;18084;53.028;8.834;2022-11-20T16:25:35;-0.50;99.90
31455;DHT22;18084;53.028;8.834;2022-11-20T16:28:01;-0.50;99.90
31455;DHT22;18084;53.028;8.834;2022-11-20T16:30:26;-0.50;99.90
31455;DHT22;18084;53.028;8.834;2022-11-20T16:32:52;-0.50;99.90
31455;DHT22;18084;53.028;8.834;2022-11-20T16:35:17;-0.50;99.90
31455;DHT22;18084;53.028;8.834;2022-11-20T16:37:43;-0.60;99.90
31455;DHT22;18084;53.028;8.834;2022-11-20T16:40:10;-0.60;99.90
31455;DHT22;18084;53.028;8.834;2022-11-20T16:42:36;-0.60;99.90
31455;DHT22;18084;53.028;8.834;2022-11-20T16:45:03;-0.70;99.90
31455;DHT22;18084;53.028;8.834;2022-11-20T16:47:35;-0.70;99.90
31455;DHT22;18084;53.028;8.834;2022-11-20T16:50:02;-0.70;99.90
31455;DHT22;18084;53.028;8.834;2022-11-20T16:52:29;-0.70;99.90
31455;DHT22;18084;53.028;8.834;2022-11-20T16:54:55;-0.80;99.90
31455;DHT22;18084;53.028;8.834;2022-11-20T16:57:20;-0.80;99.90
31455;DHT22;18084;53.028;8.834;2022-11-20T16:59:47;-0.80;99.90
31455;DHT22;18084;53.028;8.834;2022-11-20T17:02:12;-0.80;99.90
31455;DHT22;18084;53.028;8.834;2022-11-20T17:04:38;-0.90;99.90
31455;DHT22;18084;53.028;8.834;2022-11-20T17:07:04;-0.90;99.90
31455;DHT22;18084;53.028;8.834;2022-11-20T17:09:29;-0.90;99.90
31455;DHT22;18084;53.028;8.834;2022-11-20T17:11:55;-1.00;99.90
31455;DHT22;18084;53.028;8.834;2022-11-20T17:14:20;-1.00;99.90
31455;DHT22;18084;53.028;8.834;2022-11-20T17:16:46;-1.00;99.90
31455;DHT22;18084;53.028;8.834;2022-11-20T17:19:13;-1.00;99.90
31455;DHT22;18084;53.028;8.834;2022-11-20T17:21:38;-1.00;99.90
31455;DHT22;18084;53.028;8.834;2022-11-20T17:24:06;-1.00;99.90
31455;DHT22;18084;53.028;8.834;2022-11-20T17:26:33;-1.10;99.90